createdAt,value
2022-08-20T00:13:59.259Z,30.558
2022-08-20T00:29:01.079Z,29.917
2022-08-20T00:44:02.910Z,29.879
2022-08-20T00:59:04.724Z,29.439
2022-08-20T01:14:06.543Z,29.464
2022-08-20T01:29:08.437Z,31.137
2022-08-20T01:44:16.007Z,32.06
2022-08-20T01:59:20.267Z,31.057
2022-08-20T02:14:22.107Z,27.982
2022-08-20T02:29:23.941Z,27.32
2022-08-20T02:44:25.757Z,27.199
2022-08-20T02:59:27.608Z,32.065
2022-08-20T03:14:29.453Z,34.159
2022-08-20T03:29:31.278Z,30.911
2022-08-20T03:44:33.099Z,37.466
2022-08-20T03:59:34.945Z,36.479
2022-08-20T04:14:36.823Z,34.594
2022-08-20T04:29:38.672Z,33.633
2022-08-20T04:44:40.500Z,32.411
2022-08-20T04:59:42.318Z,31.758
2022-08-20T05:14:44.166Z,31.753
2022-08-20T05:29:46.084Z,31.479
2022-08-20T05:44:50.354Z,31.106
2022-08-20T05:59:52.243Z,30.816
2022-08-20T06:14:54.055Z,31.051
2022-08-20T06:29:55.863Z,30.843
2022-08-20T06:44:57.687Z,31.634
2022-08-20T06:59:59.576Z,31.316
2022-08-20T07:15:01.411Z,31.084
2022-08-20T07:30:03.226Z,31.449
2022-08-20T07:45:05.099Z,27.882
2022-08-20T08:00:06.977Z,27.734
2022-08-20T08:15:08.820Z,27.25
2022-08-20T08:30:10.691Z,30.257
2022-08-20T08:45:12.507Z,29.741
2022-08-20T09:00:14.302Z,28.976
2022-08-20T09:15:16.141Z,29.397
2022-08-20T09:30:18.526Z,30.846
2022-08-20T09:45:20.406Z,29.182
2022-08-20T10:00:22.249Z,31.321
2022-08-20T10:15:24.069Z,26.554
2022-08-20T10:30:25.886Z,29.178
2022-08-20T10:45:27.725Z,30.423
2022-08-20T11:00:29.573Z,27.463
2022-08-20T11:15:31.373Z,26.177
2022-08-20T11:30:33.154Z,28.584
2022-08-20T11:45:37.390Z,30.679
2022-08-20T12:00:39.719Z,28.702
2022-08-20T12:15:41.558Z,28.39
2022-08-20T12:30:43.382Z,29.019
2022-08-20T12:45:45.195Z,29.742
2022-08-20T13:00:50.577Z,27.636
2022-08-20T13:15:53.083Z,33.365
2022-08-20T13:30:54.942Z,33.166
2022-08-20T13:45:56.758Z,30.312
2022-08-20T14:00:58.617Z,33.7
2022-08-20T14:16:00.454Z,29.179
2022-08-20T14:31:02.257Z,31.193
2022-08-20T14:46:04.101Z,30.632
2022-08-20T15:01:05.997Z,31.447
2022-08-20T15:16:07.872Z,31.11
2022-08-20T15:31:09.691Z,31.555
2022-08-20T15:46:11.550Z,32.188
2022-08-20T16:01:24.536Z,31.484
2022-08-20T16:16:26.817Z,32.28
2022-08-20T16:31:28.646Z,30.331
2022-08-20T16:46:31.686Z,31.315
2022-08-20T17:01:35.855Z,28.95
2022-08-20T17:16:37.696Z,28.542
2022-08-20T17:31:39.523Z,28.157
2022-08-20T17:46:41.354Z,30.634
2022-08-20T18:01:43.229Z,27.461
2022-08-20T18:16:45.102Z,27.16
2022-08-20T18:31:46.918Z,26.896
2022-08-20T18:46:48.772Z,27.134
2022-08-20T19:01:50.641Z,26.594
2022-08-20T19:16:52.521Z,26.609
2022-08-20T19:31:54.369Z,26.782
2022-08-20T19:46:56.190Z,25.655
2022-08-20T20:01:58.101Z,26.626
2022-08-20T20:17:00.006Z,28.188
2022-08-20T20:32:01.830Z,28.45
2022-08-20T20:47:03.668Z,27.967
2022-08-20T21:02:05.658Z,28.467
2022-08-20T21:17:07.634Z,26.528
2022-08-20T21:32:09.502Z,26.651
2022-08-20T21:47:14.888Z,26.516
2022-08-20T22:02:16.711Z,26.492
2022-08-20T22:17:18.527Z,26.243
2022-08-20T22:32:20.370Z,26.338
2022-08-20T22:47:34.466Z,26.413
2022-08-20T23:02:36.304Z,26.47
2022-08-20T23:17:38.150Z,26.671
2022-08-20T23:32:39.987Z,26.552
2022-08-20T23:47:41.805Z,26.309
